sensor_id;sensor_type;location;lat;lon;timestamp;P1;durP1;ratioP1;P2;durP2;ratioP2
43857;SDS011;29507;51.284;5.758;2023-07-02T00:01:10;8.70;;;3.47;;
43857;SDS011;29507;51.284;5.758;2023-07-02T00:03:37;10.35;;;3.92;;
43857;SDS011;29507;51.284;5.758;2023-07-02T00:06:03;7.55;;;3.40;;
43857;SDS011;29507;51.284;5.758;2023-07-02T00:08:28;8.95;;;3.70;;
43857;SDS011;29507;51.284;5.758;2023-07-02T00:10:54;13.75;;;4.97;;
43857;SDS011;29507;51.284;5.758;2023-07-02T00:13:20;13.27;;;4.43;;
43857;SDS011;29507;51.284;5.758;2023-07-02T00:15:45;10.88;;;4.45;;
43857;SDS011;29507;51.284;5.758;2023-07-02T00:18:11;9.70;;;4.22;;
43857;SDS011;29507;51.284;5.758;2023-07-02T00:20:41;15.38;;;4.57;;
43857;SDS011;29507;51.284;5.758;2023-07-02T00:23:06;13.93;;;4.80;;
43857;SDS011;29507;51.284;5.758;2023-07-02T00:25:35;11.40;;;4.68;;
43857;SDS011;29507;51.284;5.758;2023-07-02T00:28:01;12.50;;;4.07;;
43857;SDS011;29507;51.284;5.758;2023-07-02T00:30:27;12.07;;;4.78;;
43857;SDS011;29507;51.284;5.758;2023-07-02T00:32:53;15.73;;;5.05;;
43857;SDS011;29507;51.284;5.758;2023-07-02T00:35:18;14.52;;;5.13;;
43857;SDS011;29507;51.284;5.758;2023-07-02T00:37:44;15.57;;;5.43;;
43857;SDS011;29507;51.284;5.758;2023-07-02T00:40:09;14.18;;;4.80;;
43857;SDS011;29507;51.284;5.758;2023-07-02T00:42:35;12.75;;;4.75;;
43857;SDS011;29507;51.284;5.758;2023-07-02T00:45:01;16.98;;;5.97;;
43857;SDS011;29507;51.284;5.758;2023-07-02T00:47:30;11.15;;;4.82;;
43857;SDS011;29507;51.284;5.758;2023-07-02T00:49:58;12.27;;;4.93;;
43857;SDS011;29507;51.284;5.758;2023-07-02T00:52:24;14.40;;;5.72;;
43857;SDS011;29507;51.284;5.758;2023-07-02T00:54:51;16.88;;;6.20;;
43857;SDS011;29507;51.284;5.758;2023-07-02T00:57:17;18.08;;;5.45;;
43857;SDS011;29507;51.284;5.758;2023-07-02T00:59:42;20.02;;;5.38;;
43857;SDS011;29507;51.284;5.758;2023-07-02T01:02:08;16.98;;;6.38;;
43857;SDS011;29507;51.284;5.758;2023-07-02T01:04:34;14.88;;;5.63;;
43857;SDS011;29507;51.284;5.758;2023-07-02T01:06:59;15.32;;;6.57;;
43857;SDS011;29507;51.284;5.758;2023-07-02T01:09:25;12.50;;;6.22;;
43857;SDS011;29507;51.284;5.758;2023-07-02T01:12:04;20.13;;;7.65;;
43857;SDS011;29507;51.284;5.758;2023-07-02T01:14:35;16.35;;;6.63;;
43857;SDS011;29507;51.284;5.758;2023-07-02T01:17:12;17.45;;;7.13;;
43857;SDS011;29507;51.284;5.758;2023-07-02T01:19:45;16.35;;;6.00;;
43857;SDS011;29507;51.284;5.758;2023-07-02T01:22:16;13.15;;;5.70;;
43857;SDS011;29507;51.284;5.758;2023-07-02T01:24:43;15.80;;;6.38;;
43857;SDS011;29507;51.284;5.758;2023-07-02T01:27:11;14.35;;;6.65;;
43857;SDS011;29507;51.284;5.758;2023-07-02T01:29:37;19.83;;;7.40;;
43857;SDS011;29507;51.284;5.758;2023-07-02T01:32:02;21.50;;;7.68;;
43857;SDS011;29507;51.284;5.758;2023-07-02T01:34:28;19.33;;;7.57;;
43857;SDS011;29507;51.284;5.758;2023-07-02T01:36:54;18.15;;;7.30;;
43857;SDS011;29507;51.284;5.758;2023-07-02T01:39:19;21.10;;;7.38;;
43857;SDS011;29507;51.284;5.758;2023-07-02T01:42:00;21.67;;;8.18;;
43857;SDS011;29507;51.284;5.758;2023-07-02T01:44:33;21.05;;;7.72;;
43857;SDS011;29507;51.284;5.758;2023-07-02T01:46:58;23.52;;;8.10;;
43857;SDS011;29507;51.284;5.758;2023-07-02T01:49:24;21.30;;;7.78;;
43857;SDS011;29507;51.284;5.758;2023-07-02T01:51:53;26.42;;;9.40;;
43857;SDS011;29507;51.284;5.758;2023-07-02T01:54:21;22.42;;;8.18;;
43857;SDS011;29507;51.284;5.758;2023-07-02T01:56:48;16.63;;;7.53;;
43857;SDS011;29507;51.284;5.758;2023-07-02T01:59:14;17.92;;;7.30;;
43857;SDS011;29507;51.284;5.758;2023-07-02T02:01:41;19.17;;;8.32;;
43857;SDS011;29507;51.284;5.758;2023-07-02T02:04:07;23.17;;;7.90;;
43857;SDS011;29507;51.284;5.758;2023-07-02T02:06:34;19.88;;;8.50;;
43857;SDS011;29507;51.284;5.758;2023-07-02T02:08:59;22.05;;;8.10;;
43857;SDS011;29507;51.284;5.758;2023-07-02T02:11:25;22.00;;;7.93;;
43857;SDS011;29507;51.284;5.758;2023-07-02T02:13:51;24.70;;;8.35;;
43857;SDS011;29507;51.284;5.758;2023-07-02T02:16:17;17.73;;;8.00;;
43857;SDS011;29507;51.284;5.758;2023-07-02T02:18:43;24.77;;;8.63;;
43857;SDS011;29507;51.284;5.758;2023-07-02T02:21:09;22.00;;;8.82;;
43857;SDS011;29507;51.284;5.758;2023-07-02T02:23:34;20.15;;;8.85;;
43857;SDS011;29507;51.284;5.758;2023-07-02T02:26:00;25.35;;;9.38;;
43857;SDS011;29507;51.284;5.758;2023-07-02T02:28:25;20.42;;;9.02;;
43857;SDS011;29507;51.284;5.758;2023-07-02T02:30:51;24.20;;;8.85;;
43857;SDS011;29507;51.284;5.758;2023-07-02T02:33:17;21.02;;;9.02;;
43857;SDS011;29507;51.284;5.758;2023-07-02T02:35:42;22.48;;;9.18;;
43857;SDS011;29507;51.284;5.758;2023-07-02T02:38:08;21.33;;;9.48;;
43857;SDS011;29507;51.284;5.758;2023-07-02T02:40:33;26.20;;;9.02;;
43857;SDS011;29507;51.284;5.758;2023-07-02T02:42:59;22.73;;;8.73;;
43857;SDS011;29507;51.284;5.758;2023-07-02T02:45:25;24.75;;;9.18;;
43857;SDS011;29507;51.284;5.758;2023-07-02T02:47:51;26.30;;;9.73;;
43857;SDS011;29507;51.284;5.758;2023-07-02T02:50:16;19.92;;;8.93;;
43857;SDS011;29507;51.284;5.758;2023-07-02T02:52:42;20.83;;;9.43;;
43857;SDS011;29507;51.284;5.758;2023-07-02T02:55:09;20.85;;;9.63;;
43857;SDS011;29507;51.284;5.758;2023-07-02T02:57:35;23.27;;;9.43;;
43857;SDS011;29507;51.284;5.758;2023-07-02T03:00:01;23.75;;;8.98;;
43857;SDS011;29507;51.284;5.758;2023-07-02T03:02:27;22.08;;;9.27;;
43857;SDS011;29507;51.284;5.758;2023-07-02T03:04:53;25.42;;;9.43;;
43857;SDS011;29507;51.284;5.758;2023-07-02T03:07:19;26.45;;;9.70;;
43857;SDS011;29507;51.284;5.758;2023-07-02T03:09:45;26.20;;;10.25;;
43857;SDS011;29507;51.284;5.758;2023-07-02T03:12:10;26.48;;;11.05;;
43857;SDS011;29507;51.284;5.758;2023-07-02T03:14:36;28.35;;;10.70;;
43857;SDS011;29507;51.284;5.758;2023-07-02T03:17:02;26.35;;;9.93;;
43857;SDS011;29507;51.284;5.758;2023-07-02T03:19:28;27.80;;;10.20;;
43857;SDS011;29507;51.284;5.758;2023-07-02T03:21:53;27.60;;;10.68;;
43857;SDS011;29507;51.284;5.758;2023-07-02T03:24:19;26.77;;;11.18;;
43857;SDS011;29507;51.284;5.758;2023-07-02T03:26:45;30.17;;;10.68;;
43857;SDS011;29507;51.284;5.758;2023-07-02T03:29:11;23.92;;;10.60;;
43857;SDS011;29507;51.284;5.758;2023-07-02T03:31:37;32.08;;;10.98;;
43857;SDS011;29507;51.284;5.758;2023-07-02T03:34:07;28.63;;;10.10;;
43857;SDS011;29507;51.284;5.758;2023-07-02T03:36:33;35.85;;;10.85;;
43857;SDS011;29507;51.284;5.758;2023-07-02T03:38:59;29.90;;;11.50;;
43857;SDS011;29507;51.284;5.758;2023-07-02T03:41:25;23.55;;;9.80;;
43857;SDS011;29507;51.284;5.758;2023-07-02T03:43:50;23.88;;;10.45;;
43857;SDS011;29507;51.284;5.758;2023-07-02T03:46:16;28.15;;;11.13;;
43857;SDS011;29507;51.284;5.758;2023-07-02T03:48:41;31.75;;;10.90;;
43857;SDS011;29507;51.284;5.758;2023-07-02T03:51:07;31.33;;;11.02;;
43857;SDS011;29507;51.284;5.758;2023-07-02T03:53:33;27.08;;;10.38;;
43857;SDS011;29507;51.284;5.758;2023-07-02T03:55:58;30.63;;;10.95;;
43857;SDS011;29507;51.284;5.758;2023-07-02T03:58:24;26.00;;;10.70;;
43857;SDS011;29507;51.284;5.758;2023-07-02T04:00:50;26.45;;;10.85;;
43857;SDS011;29507;51.284;5.758;2023-07-02T04:03:16;27.63;;;10.18;;
43857;SDS011;29507;51.284;5.758;2023-07-02T04:05:42;29.63;;;10.57;;
43857;SDS011;29507;51.284;5.758;2023-07-02T04:08:08;23.33;;;10.05;;
43857;SDS011;29507;51.284;5.758;2023-07-02T04:10:34;30.02;;;11.40;;
43857;SDS011;29507;51.284;5.758;2023-07-02T04:12:59;25.13;;;10.82;;
43857;SDS011;29507;51.284;5.758;2023-07-02T04:15:25;27.92;;;11.00;;
43857;SDS011;29507;51.284;5.758;2023-07-02T04:17:51;28.02;;;10.32;;
43857;SDS011;29507;51.284;5.758;2023-07-02T04:20:17;28.45;;;10.85;;
43857;SDS011;29507;51.284;5.758;2023-07-02T04:22:44;32.42;;;11.18;;
43857;SDS011;29507;51.284;5.758;2023-07-02T04:25:11;22.27;;;9.88;;
43857;SDS011;29507;51.284;5.758;2023-07-02T04:27:40;30.50;;;11.50;;
43857;SDS011;29507;51.284;5.758;2023-07-02T04:32:36;24.38;;;10.32;;
43857;SDS011;29507;51.284;5.758;2023-07-02T04:35:04;27.98;;;11.40;;
43857;SDS011;29507;51.284;5.758;2023-07-02T04:37:30;26.25;;;10.10;;
43857;SDS011;29507;51.284;5.758;2023-07-02T04:39:56;27.00;;;11.50;;
43857;SDS011;29507;51.284;5.758;2023-07-02T04:42:21;25.65;;;10.55;;
43857;SDS011;29507;51.284;5.758;2023-07-02T04:44:52;31.63;;;11.43;;
43857;SDS011;29507;51.284;5.758;2023-07-02T04:47:19;28.90;;;11.40;;
43857;SDS011;29507;51.284;5.758;2023-07-02T04:49:44;26.23;;;10.10;;
43857;SDS011;29507;51.284;5.758;2023-07-02T04:52:10;30.38;;;11.07;;
43857;SDS011;29507;51.284;5.758;2023-07-02T04:54:36;27.25;;;10.55;;
43857;SDS011;29507;51.284;5.758;2023-07-02T04:57:02;31.00;;;11.77;;
43857;SDS011;29507;51.284;5.758;2023-07-02T04:59:28;28.58;;;11.35;;
43857;SDS011;29507;51.284;5.758;2023-07-02T05:01:53;29.75;;;10.65;;
43857;SDS011;29507;51.284;5.758;2023-07-02T05:04:19;27.17;;;10.23;;
43857;SDS011;29507;51.284;5.758;2023-07-02T05:06:44;28.80;;;12.98;;
43857;SDS011;29507;51.284;5.758;2023-07-02T05:09:10;23.40;;;10.10;;
43857;SDS011;29507;51.284;5.758;2023-07-02T05:11:36;26.15;;;10.50;;
43857;SDS011;29507;51.284;5.758;2023-07-02T05:14:01;27.02;;;10.75;;
43857;SDS011;29507;51.284;5.758;2023-07-02T05:16:27;26.38;;;10.13;;
43857;SDS011;29507;51.284;5.758;2023-07-02T05:18:52;24.15;;;10.10;;
43857;SDS011;29507;51.284;5.758;2023-07-02T05:21:18;28.98;;;10.52;;
43857;SDS011;29507;51.284;5.758;2023-07-02T05:23:44;26.80;;;11.23;;
43857;SDS011;29507;51.284;5.758;2023-07-02T05:26:10;26.10;;;11.25;;
43857;SDS011;29507;51.284;5.758;2023-07-02T05:28:35;30.23;;;11.13;;
43857;SDS011;29507;51.284;5.758;2023-07-02T05:31:01;25.52;;;11.55;;
43857;SDS011;29507;51.284;5.758;2023-07-02T05:33:27;20.35;;;9.00;;
43857;SDS011;29507;51.284;5.758;2023-07-02T05:35:52;27.95;;;9.48;;
43857;SDS011;29507;51.284;5.758;2023-07-02T05:38:18;25.70;;;10.25;;
43857;SDS011;29507;51.284;5.758;2023-07-02T05:40:44;24.77;;;9.50;;
43857;SDS011;29507;51.284;5.758;2023-07-02T05:43:11;21.73;;;9.43;;
43857;SDS011;29507;51.284;5.758;2023-07-02T05:45:36;22.77;;;10.23;;
43857;SDS011;29507;51.284;5.758;2023-07-02T05:48:02;20.67;;;9.60;;
43857;SDS011;29507;51.284;5.758;2023-07-02T05:50:28;21.92;;;9.55;;
43857;SDS011;29507;51.284;5.758;2023-07-02T05:52:53;26.48;;;10.20;;
43857;SDS011;29507;51.284;5.758;2023-07-02T05:55:19;25.30;;;10.02;;
43857;SDS011;29507;51.284;5.758;2023-07-02T05:57:45;30.63;;;11.25;;
43857;SDS011;29507;51.284;5.758;2023-07-02T06:00:11;26.83;;;10.68;;
43857;SDS011;29507;51.284;5.758;2023-07-02T06:02:37;26.92;;;11.15;;
43857;SDS011;29507;51.284;5.758;2023-07-02T06:05:03;26.83;;;10.60;;
43857;SDS011;29507;51.284;5.758;2023-07-02T06:07:29;26.55;;;11.48;;
43857;SDS011;29507;51.284;5.758;2023-07-02T06:09:55;27.50;;;9.98;;
43857;SDS011;29507;51.284;5.758;2023-07-02T06:12:21;22.75;;;9.63;;
43857;SDS011;29507;51.284;5.758;2023-07-02T06:14:47;20.67;;;10.55;;
43857;SDS011;29507;51.284;5.758;2023-07-02T06:17:13;22.00;;;10.00;;
43857;SDS011;29507;51.284;5.758;2023-07-02T06:19:38;30.13;;;10.70;;
43857;SDS011;29507;51.284;5.758;2023-07-02T06:22:04;20.38;;;9.30;;
43857;SDS011;29507;51.284;5.758;2023-07-02T06:24:30;29.67;;;10.48;;
43857;SDS011;29507;51.284;5.758;2023-07-02T06:26:56;24.55;;;9.93;;
43857;SDS011;29507;51.284;5.758;2023-07-02T06:29:24;22.63;;;8.95;;
43857;SDS011;29507;51.284;5.758;2023-07-02T06:31:50;23.08;;;9.35;;
43857;SDS011;29507;51.284;5.758;2023-07-02T06:34:16;22.20;;;9.10;;
43857;SDS011;29507;51.284;5.758;2023-07-02T06:36:42;22.52;;;9.20;;
43857;SDS011;29507;51.284;5.758;2023-07-02T06:39:08;23.98;;;9.88;;
43857;SDS011;29507;51.284;5.758;2023-07-02T06:41:37;24.95;;;8.07;;
43857;SDS011;29507;51.284;5.758;2023-07-02T06:44:02;17.67;;;7.10;;
43857;SDS011;29507;51.284;5.758;2023-07-02T06:46:28;18.77;;;7.55;;
43857;SDS011;29507;51.284;5.758;2023-07-02T06:48:55;13.75;;;6.15;;
43857;SDS011;29507;51.284;5.758;2023-07-02T06:51:20;16.00;;;6.70;;
43857;SDS011;29507;51.284;5.758;2023-07-02T06:53:46;20.63;;;6.82;;
43857;SDS011;29507;51.284;5.758;2023-07-02T06:56:12;16.10;;;6.72;;
43857;SDS011;29507;51.284;5.758;2023-07-02T06:58:44;14.77;;;6.22;;
43857;SDS011;29507;51.284;5.758;2023-07-02T07:01:09;20.85;;;6.82;;
43857;SDS011;29507;51.284;5.758;2023-07-02T07:03:35;16.60;;;6.63;;
43857;SDS011;29507;51.284;5.758;2023-07-02T07:06:01;14.73;;;5.45;;
43857;SDS011;29507;51.284;5.758;2023-07-02T07:08:27;16.85;;;6.45;;
43857;SDS011;29507;51.284;5.758;2023-07-02T07:10:53;17.40;;;6.20;;
43857;SDS011;29507;51.284;5.758;2023-07-02T07:13:19;14.35;;;6.07;;
43857;SDS011;29507;51.284;5.758;2023-07-02T07:15:44;17.27;;;5.85;;
43857;SDS011;29507;51.284;5.758;2023-07-02T07:18:10;14.65;;;5.22;;
43857;SDS011;29507;51.284;5.758;2023-07-02T07:20:36;12.27;;;5.32;;
43857;SDS011;29507;51.284;5.758;2023-07-02T07:23:03;13.65;;;5.53;;
43857;SDS011;29507;51.284;5.758;2023-07-02T07:25:29;13.25;;;5.40;;
43857;SDS011;29507;51.284;5.758;2023-07-02T07:27:54;16.95;;;6.40;;
43857;SDS011;29507;51.284;5.758;2023-07-02T07:30:20;14.55;;;5.90;;
43857;SDS011;29507;51.284;5.758;2023-07-02T07:32:49;13.45;;;5.55;;
43857;SDS011;29507;51.284;5.758;2023-07-02T07:35:16;14.45;;;6.20;;
43857;SDS011;29507;51.284;5.758;2023-07-02T07:37:42;13.68;;;5.55;;
43857;SDS011;29507;51.284;5.758;2023-07-02T07:40:08;18.17;;;6.22;;
43857;SDS011;29507;51.284;5.758;2023-07-02T07:42:34;14.77;;;5.40;;
43857;SDS011;29507;51.284;5.758;2023-07-02T07:44:59;11.73;;;4.93;;
43857;SDS011;29507;51.284;5.758;2023-07-02T07:47:25;12.77;;;5.68;;
43857;SDS011;29507;51.284;5.758;2023-07-02T07:49:51;13.32;;;5.65;;
43857;SDS011;29507;51.284;5.758;2023-07-02T07:52:16;11.65;;;5.47;;
43857;SDS011;29507;51.284;5.758;2023-07-02T07:54:42;15.10;;;5.15;;
43857;SDS011;29507;51.284;5.758;2023-07-02T07:57:08;18.10;;;5.70;;
43857;SDS011;29507;51.284;5.758;2023-07-02T07:59:34;14.20;;;5.35;;
43857;SDS011;29507;51.284;5.758;2023-07-02T08:01:59;15.68;;;4.97;;
43857;SDS011;29507;51.284;5.758;2023-07-02T08:04:25;17.73;;;5.97;;
43857;SDS011;29507;51.284;5.758;2023-07-02T08:06:50;15.85;;;5.47;;
43857;SDS011;29507;51.284;5.758;2023-07-02T08:09:16;14.90;;;5.68;;
43857;SDS011;29507;51.284;5.758;2023-07-02T08:11:42;14.35;;;5.38;;
43857;SDS011;29507;51.284;5.758;2023-07-02T08:14:08;12.10;;;4.85;;
43857;SDS011;29507;51.284;5.758;2023-07-02T08:16:33;15.45;;;5.28;;
43857;SDS011;29507;51.284;5.758;2023-07-02T08:18:59;12.18;;;4.50;;
43857;SDS011;29507;51.284;5.758;2023-07-02T08:21:26;9.27;;;4.13;;
43857;SDS011;29507;51.284;5.758;2023-07-02T08:23:51;11.43;;;4.07;;
43857;SDS011;29507;51.284;5.758;2023-07-02T08:26:17;11.07;;;4.43;;
43857;SDS011;29507;51.284;5.758;2023-07-02T08:28:43;10.10;;;3.97;;
43857;SDS011;29507;51.284;5.758;2023-07-02T08:31:09;11.93;;;4.30;;
43857;SDS011;29507;51.284;5.758;2023-07-02T08:33:34;12.35;;;3.58;;
43857;SDS011;29507;51.284;5.758;2023-07-02T08:36:00;11.75;;;3.83;;
43857;SDS011;29507;51.284;5.758;2023-07-02T08:38:26;10.25;;;3.90;;
43857;SDS011;29507;51.284;5.758;2023-07-02T08:40:52;8.18;;;3.67;;
43857;SDS011;29507;51.284;5.758;2023-07-02T08:43:17;10.80;;;3.83;;
43857;SDS011;29507;51.284;5.758;2023-07-02T08:45:43;10.13;;;4.10;;
43857;SDS011;29507;51.284;5.758;2023-07-02T08:48:10;13.48;;;3.92;;
43857;SDS011;29507;51.284;5.758;2023-07-02T08:50:36;15.15;;;4.28;;
43857;SDS011;29507;51.284;5.758;2023-07-02T08:53:02;13.30;;;3.72;;
43857;SDS011;29507;51.284;5.758;2023-07-02T08:55:28;11.10;;;3.67;;
43857;SDS011;29507;51.284;5.758;2023-07-02T08:57:56;10.15;;;3.75;;
43857;SDS011;29507;51.284;5.758;2023-07-02T09:00:25;14.95;;;4.38;;
43857;SDS011;29507;51.284;5.758;2023-07-02T09:02:51;12.40;;;4.40;;
43857;SDS011;29507;51.284;5.758;2023-07-02T09:05:16;17.00;;;4.68;;
43857;SDS011;29507;51.284;5.758;2023-07-02T09:07:43;13.05;;;4.20;;
43857;SDS011;29507;51.284;5.758;2023-07-02T09:10:10;11.07;;;3.80;;
43857;SDS011;29507;51.284;5.758;2023-07-02T09:12:36;11.13;;;4.03;;
43857;SDS011;29507;51.284;5.758;2023-07-02T09:15:04;12.75;;;4.45;;
43857;SDS011;29507;51.284;5.758;2023-07-02T09:17:32;9.63;;;3.97;;
43857;SDS011;29507;51.284;5.758;2023-07-02T09:20:00;8.98;;;3.80;;
43857;SDS011;29507;51.284;5.758;2023-07-02T09:22:27;10.55;;;4.22;;
43857;SDS011;29507;51.284;5.758;2023-07-02T09:24:54;14.13;;;4.68;;
43857;SDS011;29507;51.284;5.758;2023-07-02T09:27:22;12.95;;;4.07;;
43857;SDS011;29507;51.284;5.758;2023-07-02T09:32:34;9.65;;;4.15;;
43857;SDS011;29507;51.284;5.758;2023-07-02T09:35:00;9.95;;;3.80;;
43857;SDS011;29507;51.284;5.758;2023-07-02T09:37:27;8.95;;;3.90;;
43857;SDS011;29507;51.284;5.758;2023-07-02T09:39:53;12.32;;;4.20;;
43857;SDS011;29507;51.284;5.758;2023-07-02T09:42:21;10.07;;;4.80;;
43857;SDS011;29507;51.284;5.758;2023-07-02T09:44:47;12.02;;;4.00;;
43857;SDS011;29507;51.284;5.758;2023-07-02T09:47:17;12.20;;;4.40;;
43857;SDS011;29507;51.284;5.758;2023-07-02T09:49:52;10.93;;;4.32;;
43857;SDS011;29507;51.284;5.758;2023-07-02T09:52:24;12.60;;;4.53;;
43857;SDS011;29507;51.284;5.758;2023-07-02T09:54:51;10.27;;;4.28;;
43857;SDS011;29507;51.284;5.758;2023-07-02T09:57:16;12.95;;;4.65;;
43857;SDS011;29507;51.284;5.758;2023-07-02T09:59:42;10.60;;;4.63;;
43857;SDS011;29507;51.284;5.758;2023-07-02T10:02:08;11.57;;;3.75;;
43857;SDS011;29507;51.284;5.758;2023-07-02T10:04:47;10.48;;;4.35;;
43857;SDS011;29507;51.284;5.758;2023-07-02T10:07:29;11.80;;;4.20;;
43857;SDS011;29507;51.284;5.758;2023-07-02T10:09:57;12.15;;;4.07;;
43857;SDS011;29507;51.284;5.758;2023-07-02T10:14:50;13.18;;;5.03;;
43857;SDS011;29507;51.284;5.758;2023-07-02T10:19:56;15.33;;;4.97;;
43857;SDS011;29507;51.284;5.758;2023-07-02T10:22:23;15.13;;;4.05;;
43857;SDS011;29507;51.284;5.758;2023-07-02T10:24:55;10.70;;;4.25;;
43857;SDS011;29507;51.284;5.758;2023-07-02T10:27:42;10.65;;;4.32;;
43857;SDS011;29507;51.284;5.758;2023-07-02T10:30:09;9.18;;;3.75;;
43857;SDS011;29507;51.284;5.758;2023-07-02T10:32:35;13.15;;;4.07;;
43857;SDS011;29507;51.284;5.758;2023-07-02T10:35:24;11.02;;;4.30;;
43857;SDS011;29507;51.284;5.758;2023-07-02T10:37:50;12.20;;;4.43;;
43857;SDS011;29507;51.284;5.758;2023-07-02T10:40:16;11.68;;;4.43;;
43857;SDS011;29507;51.284;5.758;2023-07-02T10:42:48;13.68;;;3.97;;
43857;SDS011;29507;51.284;5.758;2023-07-02T10:45:15;11.52;;;5.20;;
43857;SDS011;29507;51.284;5.758;2023-07-02T10:47:41;11.90;;;4.45;;
43857;SDS011;29507;51.284;5.758;2023-07-02T10:50:17;12.25;;;4.35;;
43857;SDS011;29507;51.284;5.758;2023-07-02T10:52:44;11.45;;;4.30;;
43857;SDS011;29507;51.284;5.758;2023-07-02T10:55:10;13.60;;;4.95;;
43857;SDS011;29507;51.284;5.758;2023-07-02T10:57:40;11.52;;;4.97;;
43857;SDS011;29507;51.284;5.758;2023-07-02T11:00:06;12.05;;;4.85;;
43857;SDS011;29507;51.284;5.758;2023-07-02T11:02:39;8.75;;;4.47;;
43857;SDS011;29507;51.284;5.758;2023-07-02T11:05:05;13.45;;;4.68;;
43857;SDS011;29507;51.284;5.758;2023-07-02T11:07:32;10.80;;;4.47;;
43857;SDS011;29507;51.284;5.758;2023-07-02T11:09:58;11.55;;;4.38;;
43857;SDS011;29507;51.284;5.758;2023-07-02T11:12:27;9.07;;;4.70;;
43857;SDS011;29507;51.284;5.758;2023-07-02T11:14:54;12.55;;;4.80;;
43857;SDS011;29507;51.284;5.758;2023-07-02T11:17:24;14.85;;;4.93;;
43857;SDS011;29507;51.284;5.758;2023-07-02T11:19:51;11.93;;;4.68;;
43857;SDS011;29507;51.284;5.758;2023-07-02T11:22:18;10.85;;;4.45;;
43857;SDS011;29507;51.284;5.758;2023-07-02T11:24:43;14.18;;;5.30;;
43857;SDS011;29507;51.284;5.758;2023-07-02T11:27:09;11.18;;;4.57;;
43857;SDS011;29507;51.284;5.758;2023-07-02T11:29:46;11.23;;;5.00;;
43857;SDS011;29507;51.284;5.758;2023-07-02T11:32:12;14.30;;;4.95;;
43857;SDS011;29507;51.284;5.758;2023-07-02T11:34:39;14.55;;;5.35;;
43857;SDS011;29507;51.284;5.758;2023-07-02T11:37:05;14.27;;;5.65;;
43857;SDS011;29507;51.284;5.758;2023-07-02T11:39:31;12.40;;;4.93;;
43857;SDS011;29507;51.284;5.758;2023-07-02T11:41:57;14.07;;;4.50;;
43857;SDS011;29507;51.284;5.758;2023-07-02T11:44:23;12.52;;;5.13;;
43857;SDS011;29507;51.284;5.758;2023-07-02T11:46:49;12.50;;;4.38;;
43857;SDS011;29507;51.284;5.758;2023-07-02T11:49:15;14.48;;;5.43;;
43857;SDS011;29507;51.284;5.758;2023-07-02T11:51:41;11.60;;;4.68;;
43857;SDS011;29507;51.284;5.758;2023-07-02T11:54:13;13.23;;;4.82;;
43857;SDS011;29507;51.284;5.758;2023-07-02T11:56:39;13.90;;;5.20;;
43857;SDS011;29507;51.284;5.758;2023-07-02T11:59:07;13.88;;;4.85;;
43857;SDS011;29507;51.284;5.758;2023-07-02T12:01:32;12.23;;;4.82;;
43857;SDS011;29507;51.284;5.758;2023-07-02T12:03:58;11.02;;;5.18;;
43857;SDS011;29507;51.284;5.758;2023-07-02T12:06:24;9.15;;;4.40;;
43857;SDS011;29507;51.284;5.758;2023-07-02T12:08:50;12.60;;;5.25;;
43857;SDS011;29507;51.284;5.758;2023-07-02T12:11:15;13.35;;;5.10;;
43857;SDS011;29507;51.284;5.758;2023-07-02T12:13:41;14.55;;;5.72;;
43857;SDS011;29507;51.284;5.758;2023-07-02T12:16:07;12.82;;;4.85;;
43857;SDS011;29507;51.284;5.758;2023-07-02T12:18:33;13.80;;;5.15;;
43857;SDS011;29507;51.284;5.758;2023-07-02T12:20:58;13.45;;;4.93;;
43857;SDS011;29507;51.284;5.758;2023-07-02T12:23:24;11.80;;;5.10;;
43857;SDS011;29507;51.284;5.758;2023-07-02T12:25:49;16.45;;;6.03;;
43857;SDS011;29507;51.284;5.758;2023-07-02T12:28:15;15.90;;;5.50;;
43857;SDS011;29507;51.284;5.758;2023-07-02T12:30:41;14.90;;;5.18;;
43857;SDS011;29507;51.284;5.758;2023-07-02T12:33:06;13.98;;;5.07;;
43857;SDS011;29507;51.284;5.758;2023-07-02T12:35:32;14.23;;;5.05;;
43857;SDS011;29507;51.284;5.758;2023-07-02T12:37:58;13.75;;;5.45;;
43857;SDS011;29507;51.284;5.758;2023-07-02T12:40:24;16.63;;;5.72;;
43857;SDS011;29507;51.284;5.758;2023-07-02T12:42:50;13.95;;;5.72;;
43857;SDS011;29507;51.284;5.758;2023-07-02T12:45:16;17.55;;;5.78;;
43857;SDS011;29507;51.284;5.758;2023-07-02T12:47:42;10.18;;;5.35;;
43857;SDS011;29507;51.284;5.758;2023-07-02T12:50:08;10.88;;;5.15;;
43857;SDS011;29507;51.284;5.758;2023-07-02T12:52:35;17.92;;;6.20;;
43857;SDS011;29507;51.284;5.758;2023-07-02T12:55:01;14.77;;;5.70;;
43857;SDS011;29507;51.284;5.758;2023-07-02T12:57:27;15.82;;;6.22;;
43857;SDS011;29507;51.284;5.758;2023-07-02T12:59:53;16.17;;;6.05;;
43857;SDS011;29507;51.284;5.758;2023-07-02T13:02:20;20.85;;;5.45;;
43857;SDS011;29507;51.284;5.758;2023-07-02T13:04:46;17.17;;;6.68;;
43857;SDS011;29507;51.284;5.758;2023-07-02T13:07:11;15.93;;;6.00;;
43857;SDS011;29507;51.284;5.758;2023-07-02T13:09:37;13.23;;;5.72;;
43857;SDS011;29507;51.284;5.758;2023-07-02T13:12:03;24.10;;;6.72;;
43857;SDS011;29507;51.284;5.758;2023-07-02T13:14:29;13.80;;;5.47;;
43857;SDS011;29507;51.284;5.758;2023-07-02T13:16:55;13.43;;;5.65;;
43857;SDS011;29507;51.284;5.758;2023-07-02T13:19:21;16.73;;;5.63;;
43857;SDS011;29507;51.284;5.758;2023-07-02T13:21:46;16.08;;;6.03;;
43857;SDS011;29507;51.284;5.758;2023-07-02T13:24:12;13.48;;;5.13;;
43857;SDS011;29507;51.284;5.758;2023-07-02T13:26:37;15.75;;;5.40;;
43857;SDS011;29507;51.284;5.758;2023-07-02T13:29:03;14.15;;;5.68;;
43857;SDS011;29507;51.284;5.758;2023-07-02T13:31:29;14.27;;;5.53;;
43857;SDS011;29507;51.284;5.758;2023-07-02T13:33:54;15.45;;;5.82;;
43857;SDS011;29507;51.284;5.758;2023-07-02T13:36:20;13.65;;;6.20;;
43857;SDS011;29507;51.284;5.758;2023-07-02T13:38:45;13.43;;;4.72;;
43857;SDS011;29507;51.284;5.758;2023-07-02T13:41:11;11.32;;;4.80;;
43857;SDS011;29507;51.284;5.758;2023-07-02T13:43:37;13.07;;;5.45;;
43857;SDS011;29507;51.284;5.758;2023-07-02T13:46:03;11.30;;;4.80;;
43857;SDS011;29507;51.284;5.758;2023-07-02T13:48:29;13.43;;;4.68;;
43857;SDS011;29507;51.284;5.758;2023-07-02T13:50:55;11.38;;;4.88;;
43857;SDS011;29507;51.284;5.758;2023-07-02T13:53:20;12.65;;;4.30;;
43857;SDS011;29507;51.284;5.758;2023-07-02T13:55:46;14.30;;;5.32;;
43857;SDS011;29507;51.284;5.758;2023-07-02T13:58:12;15.18;;;3.95;;
43857;SDS011;29507;51.284;5.758;2023-07-02T14:00:37;10.60;;;4.47;;
43857;SDS011;29507;51.284;5.758;2023-07-02T14:03:03;11.23;;;3.80;;
43857;SDS011;29507;51.284;5.758;2023-07-02T14:05:30;11.07;;;3.83;;
43857;SDS011;29507;51.284;5.758;2023-07-02T14:07:56;9.73;;;4.30;;
43857;SDS011;29507;51.284;5.758;2023-07-02T14:10:22;12.90;;;4.38;;
43857;SDS011;29507;51.284;5.758;2023-07-02T14:12:48;12.98;;;4.18;;
43857;SDS011;29507;51.284;5.758;2023-07-02T14:15:13;13.52;;;4.55;;
43857;SDS011;29507;51.284;5.758;2023-07-02T14:17:39;15.27;;;3.92;;
43857;SDS011;29507;51.284;5.758;2023-07-02T14:20:05;12.82;;;3.72;;
43857;SDS011;29507;51.284;5.758;2023-07-02T14:22:32;10.10;;;4.20;;
43857;SDS011;29507;51.284;5.758;2023-07-02T14:24:58;11.30;;;3.53;;
43857;SDS011;29507;51.284;5.758;2023-07-02T14:27:23;8.73;;;3.78;;
43857;SDS011;29507;51.284;5.758;2023-07-02T14:29:49;7.55;;;3.95;;
43857;SDS011;29507;51.284;5.758;2023-07-02T14:32:15;13.30;;;4.10;;
43857;SDS011;29507;51.284;5.758;2023-07-02T14:34:41;12.57;;;4.28;;
43857;SDS011;29507;51.284;5.758;2023-07-02T14:37:06;10.38;;;4.57;;
43857;SDS011;29507;51.284;5.758;2023-07-02T14:39:32;11.60;;;4.75;;